createdAt,value
2018-02-02T00:01:07.047Z,3.40
2018-02-02T00:03:34.808Z,3.30
2018-02-02T00:06:02.416Z,3.40
2018-02-02T00:08:29.969Z,3.50
2018-02-02T00:10:57.420Z,3.40
2018-02-02T00:13:24.884Z,3.30
2018-02-02T00:15:52.332Z,3.40
2018-02-02T00:18:19.820Z,3.50
2018-02-02T00:20:47.288Z,3.40
2018-02-02T00:23:14.748Z,3.40
2018-02-02T00:25:42.231Z,3.40
2018-02-02T00:28:09.684Z,3.40
2018-02-02T00:30:37.453Z,3.50
2018-02-02T00:33:04.908Z,3.50
2018-02-02T00:35:32.365Z,3.50
2018-02-02T00:37:59.829Z,3.50
2018-02-02T00:40:27.287Z,3.50
2018-02-02T00:42:54.755Z,3.50
2018-02-02T00:45:22.214Z,3.40
2018-02-02T00:47:49.671Z,3.40
2018-02-02T00:50:17.124Z,3.40
2018-02-02T00:52:44.583Z,3.40
2018-02-02T00:55:12.036Z,3.40
2018-02-02T00:57:39.492Z,3.40
2018-02-02T01:00:06.963Z,3.40
2018-02-02T01:02:34.712Z,3.40
2018-02-02T01:05:02.165Z,3.40
2018-02-02T01:07:29.615Z,3.40
2018-02-02T01:09:57.072Z,3.40
2018-02-02T01:12:24.530Z,3.40
2018-02-02T01:14:52.006Z,3.40
2018-02-02T01:17:19.767Z,3.30
2018-02-02T01:19:47.220Z,3.40
2018-02-02T01:22:14.679Z,3.40
2018-02-02T01:24:42.445Z,3.40
2018-02-02T01:27:09.899Z,3.40
2018-02-02T01:29:37.672Z,3.40
2018-02-02T01:32:05.123Z,3.40
2018-02-02T01:34:32.580Z,3.40
2018-02-02T01:37:00.048Z,3.40
2018-02-02T01:39:27.500Z,3.50
2018-02-02T01:41:55.263Z,3.50
2018-02-02T01:44:23.032Z,3.50
2018-02-02T01:46:50.512Z,3.50
2018-02-02T01:49:18.251Z,3.60
2018-02-02T01:51:45.712Z,3.60
2018-02-02T01:54:13.167Z,3.60
2018-02-02T01:56:40.623Z,3.60
2018-02-02T01:59:08.392Z,3.50
2018-02-02T02:01:35.856Z,3.50
2018-02-02T02:04:03.524Z,3.50
2018-02-02T02:06:31.072Z,3.50
2018-02-02T02:08:58.636Z,3.50
2018-02-02T02:11:26.089Z,3.50
2018-02-02T02:13:53.752Z,3.50
2018-02-02T02:16:21.209Z,3.60
2018-02-02T02:18:48.661Z,3.50
2018-02-02T02:21:16.112Z,3.50
2018-02-02T02:23:43.592Z,3.40
2018-02-02T02:26:11.347Z,3.40
2018-02-02T02:28:38.803Z,3.20
2018-02-02T02:31:06.255Z,3.20
2018-02-02T02:33:33.708Z,3.10
2018-02-02T02:36:01.172Z,3.00
2018-02-02T02:38:28.944Z,2.90
2018-02-02T02:40:56.716Z,2.80
2018-02-02T02:43:24.168Z,2.60
2018-02-02T02:45:51.632Z,2.40
2018-02-02T02:48:19.088Z,2.40
2018-02-02T02:50:46.549Z,2.30
2018-02-02T02:53:14.319Z,2.30
2018-02-02T02:55:41.792Z,2.30
2018-02-02T02:58:09.441Z,2.20
2018-02-02T03:00:37.000Z,2.10
2018-02-02T03:03:04.756Z,2.10
2018-02-02T03:05:32.207Z,2.10
2018-02-02T03:07:59.673Z,2.10
2018-02-02T03:10:27.136Z,2.10
2018-02-02T03:12:54.596Z,2.00
2018-02-02T03:15:22.071Z,2.00
2018-02-02T03:17:49.528Z,2.00
2018-02-02T03:20:16.983Z,2.00
2018-02-02T03:22:44.727Z,2.00
2018-02-02T03:25:12.488Z,2.10
2018-02-02T03:27:40.115Z,2.10
2018-02-02T03:30:07.652Z,2.10
2018-02-02T03:32:35.117Z,2.10
2018-02-02T03:35:02.568Z,2.20
2018-02-02T03:37:30.025Z,2.20
2018-02-02T03:39:57.513Z,2.20
2018-02-02T03:42:24.963Z,2.20
2018-02-02T03:44:52.427Z,2.10
2018-02-02T03:47:19.884Z,2.20
2018-02-02T03:49:47.335Z,2.10
2018-02-02T03:52:14.792Z,2.10
2018-02-02T03:54:42.248Z,2.10
2018-02-02T03:57:09.729Z,2.10
2018-02-02T03:59:37.184Z,2.20
2018-02-02T04:02:04.648Z,2.20
2018-02-02T04:04:32.127Z,2.20
2018-02-02T04:06:59.580Z,2.20
2018-02-02T04:09:27.417Z,2.20
2018-02-02T04:11:55.023Z,2.30
2018-02-02T04:14:22.596Z,2.30
2018-02-02T04:16:50.035Z,2.30
2018-02-02T04:19:17.736Z,2.40
2018-02-02T04:21:45.193Z,2.40
2018-02-02T04:24:12.648Z,2.40
2018-02-02T04:26:40.177Z,2.40
2018-02-02T04:29:07.931Z,2.40
2018-02-02T04:31:35.390Z,2.40
2018-02-02T04:34:02.851Z,2.40
2018-02-02T04:36:30.304Z,2.50
2018-02-02T04:38:57.776Z,2.60
2018-02-02T04:41:25.533Z,2.60
2018-02-02T04:43:52.986Z,2.60
2018-02-02T04:46:20.751Z,2.70
2018-02-02T04:48:48.207Z,2.70
2018-02-02T04:51:15.668Z,2.80
2018-02-02T04:53:43.127Z,2.90
2018-02-02T04:56:10.704Z,3.00
2018-02-02T04:58:39.013Z,3.10
2018-02-02T05:01:06.424Z,3.10
2018-02-02T05:03:34.096Z,3.10
2018-02-02T05:06:01.641Z,3.10
2018-02-02T05:08:29.103Z,3.20
2018-02-02T05:10:56.556Z,3.30
2018-02-02T05:13:24.016Z,3.30
2018-02-02T05:15:51.472Z,3.30
2018-02-02T05:18:18.936Z,3.30
2018-02-02T05:20:46.696Z,3.30
2018-02-02T05:23:14.158Z,3.30
2018-02-02T05:25:41.919Z,3.30
2018-02-02T05:28:09.685Z,3.40
2018-02-02T05:30:37.199Z,3.40
2018-02-02T05:33:04.815Z,3.50
2018-02-02T05:35:32.272Z,3.50
2018-02-02T05:37:59.735Z,3.50
2018-02-02T05:40:27.284Z,3.50
2018-02-02T05:42:54.735Z,3.50
2018-02-02T05:45:22.192Z,3.50
2018-02-02T05:47:49.968Z,3.50
2018-02-02T05:50:17.636Z,3.60
2018-02-02T05:52:45.167Z,3.60
2018-02-02T05:55:12.645Z,3.60
2018-02-02T05:57:40.319Z,3.60
2018-02-02T06:00:07.784Z,3.60
2018-02-02T06:02:35.252Z,3.60
2018-02-02T06:05:02.714Z,3.60
2018-02-02T06:07:30.239Z,3.60
2018-02-02T06:09:57.868Z,3.70
2018-02-02T06:12:25.319Z,3.70
2018-02-02T06:14:52.921Z,3.70
2018-02-02T06:17:20.375Z,3.70
2018-02-02T06:19:48.139Z,3.70
2018-02-02T06:22:15.605Z,3.70
2018-02-02T06:24:43.064Z,3.80
2018-02-02T06:27:10.820Z,3.70
2018-02-02T06:29:38.303Z,3.80
2018-02-02T06:32:06.188Z,3.80
2018-02-02T06:34:34.403Z,3.70
2018-02-02T06:37:04.455Z,3.70
2018-02-02T06:39:32.680Z,3.80
2018-02-02T06:42:00.139Z,3.80
2018-02-02T06:44:27.593Z,3.80
2018-02-02T06:46:55.307Z,3.80
2018-02-02T06:49:22.856Z,3.80
2018-02-02T06:51:50.628Z,3.80
2018-02-02T06:54:18.084Z,3.80
2018-02-02T06:56:45.547Z,3.80
2018-02-02T06:59:13.311Z,3.80
2018-02-02T07:01:40.769Z,3.80
2018-02-02T07:04:08.252Z,3.80
2018-02-02T07:06:35.700Z,3.80
2018-02-02T07:09:03.156Z,3.90
2018-02-02T07:11:30.837Z,3.90
2018-02-02T07:13:58.292Z,3.90
2018-02-02T07:16:25.821Z,3.90
2018-02-02T07:18:53.487Z,3.90
2018-02-02T07:21:20.968Z,3.90
2018-02-02T07:23:48.423Z,3.90
2018-02-02T07:26:15.959Z,3.90
2018-02-02T07:28:43.628Z,3.90
2018-02-02T07:31:11.191Z,3.90
2018-02-02T07:33:38.648Z,3.90
2018-02-02T07:36:06.107Z,3.90
2018-02-02T07:38:33.860Z,3.90
2018-02-02T07:41:01.316Z,4.00
2018-02-02T07:43:28.772Z,4.00
2018-02-02T07:45:56.244Z,4.00
2018-02-02T07:48:23.696Z,4.00
2018-02-02T07:50:51.152Z,3.90
2018-02-02T07:53:18.607Z,3.90
2018-02-02T07:55:46.064Z,3.90
2018-02-02T07:58:13.519Z,3.90
2018-02-02T08:00:57.644Z,3.90
2018-02-02T08:03:25.332Z,3.90
2018-02-02T08:05:52.790Z,3.90
2018-02-02T08:08:20.556Z,3.90
2018-02-02T08:10:48.020Z,3.80
2018-02-02T08:13:15.788Z,3.80
2018-02-02T08:15:43.240Z,3.90
2018-02-02T08:18:11.008Z,3.90
2018-02-02T08:20:38.472Z,3.90
2018-02-02T08:23:05.928Z,3.90
2018-02-02T08:25:33.380Z,3.90
2018-02-02T08:28:00.841Z,3.90
2018-02-02T08:30:28.300Z,3.90
2018-02-02T08:32:55.760Z,3.90
2018-02-02T08:35:23.234Z,3.90
2018-02-02T08:37:51.532Z,3.90
2018-02-02T08:40:18.996Z,3.90
2018-02-02T08:42:46.472Z,3.90
2018-02-02T08:45:13.924Z,3.90
2018-02-02T08:47:41.380Z,3.90
2018-02-02T08:50:08.833Z,3.90
2018-02-02T08:52:36.295Z,3.90
2018-02-02T08:55:03.797Z,3.80
2018-02-02T08:57:31.476Z,3.80
2018-02-02T08:59:59.854Z,3.80
2018-02-02T09:02:27.309Z,3.80
2018-02-02T09:04:54.764Z,3.70
2018-02-02T09:07:22.311Z,3.70
2018-02-02T09:09:49.773Z,3.70
2018-02-02T09:12:17.532Z,3.60
2018-02-02T09:14:44.988Z,3.60
2018-02-02T09:17:12.453Z,3.70
2018-02-02T09:19:40.212Z,3.70
2018-02-02T09:22:07.368Z,3.60
2018-02-02T09:24:34.827Z,3.60
2018-02-02T09:27:02.003Z,3.60
2018-02-02T09:29:29.455Z,3.60
2018-02-02T09:31:56.908Z,3.60
2018-02-02T09:34:24.572Z,3.70
2018-02-02T09:36:52.036Z,3.70
2018-02-02T09:39:19.753Z,3.70
2018-02-02T09:41:47.320Z,3.70
2018-02-02T09:44:14.793Z,3.70
2018-02-02T09:46:42.248Z,3.70
2018-02-02T09:49:09.703Z,3.80
2018-02-02T09:51:37.477Z,3.80
2018-02-02T09:54:04.929Z,3.80
2018-02-02T09:56:32.575Z,3.80
2018-02-02T09:59:00.029Z,3.80
2018-02-02T10:01:27.612Z,3.90
2018-02-02T10:03:55.383Z,3.90
2018-02-02T10:06:22.837Z,3.90
2018-02-02T10:08:50.297Z,3.80
2018-02-02T10:11:18.076Z,3.80
2018-02-02T10:13:45.523Z,3.90
2018-02-02T10:16:12.985Z,3.90
2018-02-02T10:18:40.736Z,3.90
2018-02-02T10:21:08.196Z,3.90
2018-02-02T10:23:35.648Z,4.00
2018-02-02T10:26:03.104Z,4.10
2018-02-02T10:28:30.765Z,4.00
2018-02-02T10:30:58.536Z,4.00
2018-02-02T10:33:25.992Z,4.10
2018-02-02T10:35:54.224Z,4.20
2018-02-02T10:38:21.936Z,4.20
2018-02-02T10:40:49.704Z,4.20
2018-02-02T10:43:17.198Z,4.20
2018-02-02T10:45:44.920Z,4.20
2018-02-02T10:48:12.384Z,4.30
2018-02-02T10:50:40.144Z,4.30
2018-02-02T10:53:07.645Z,4.30
2018-02-02T10:55:35.279Z,4.40
2018-02-02T10:58:02.744Z,4.40
2018-02-02T11:00:45.088Z,4.50
2018-02-02T11:03:19.027Z,4.60
2018-02-02T11:05:46.704Z,4.60
2018-02-02T11:08:14.383Z,4.60
2018-02-02T11:10:41.924Z,4.50
2018-02-02T11:13:09.380Z,4.60
2018-02-02T11:15:36.837Z,4.60
2018-02-02T11:18:04.304Z,4.70
2018-02-02T11:20:32.078Z,4.90
2018-02-02T11:22:59.838Z,4.90
2018-02-02T11:25:27.296Z,4.90
2018-02-02T11:27:54.975Z,4.90
2018-02-02T11:30:22.424Z,4.90
2018-02-02T11:32:49.879Z,5.10
2018-02-02T11:35:17.331Z,5.30
2018-02-02T11:37:44.884Z,5.50
2018-02-02T11:40:12.356Z,5.60
2018-02-02T11:42:39.804Z,5.60
2018-02-02T11:45:07.415Z,5.70
2018-02-02T11:47:34.871Z,5.70
2018-02-02T11:50:02.491Z,5.60
2018-02-02T11:52:30.247Z,5.50
2018-02-02T11:54:57.708Z,5.40
2018-02-02T11:57:25.392Z,5.40
2018-02-02T11:59:53.847Z,5.40
2018-02-02T12:02:21.324Z,5.40
2018-02-02T12:04:48.779Z,5.40
2018-02-02T12:07:16.238Z,5.50
2018-02-02T12:09:43.988Z,5.60
2018-02-02T12:12:11.447Z,5.50
2018-02-02T12:14:38.901Z,5.60
2018-02-02T12:17:06.356Z,5.50
2018-02-02T12:19:33.810Z,5.50
2018-02-02T12:22:19.072Z,5.50
2018-02-02T12:25:02.210Z,5.40
2018-02-02T12:27:48.536Z,5.50
2018-02-02T12:30:31.659Z,5.60
2018-02-02T12:33:00.671Z,5.70
2018-02-02T12:35:39.631Z,6.00
2018-02-02T12:38:07.084Z,6.00
2018-02-02T12:40:34.536Z,6.30
2018-02-02T12:43:02.004Z,6.50
2018-02-02T12:45:29.460Z,6.40
2018-02-02T12:48:02.913Z,6.30
2018-02-02T12:50:43.155Z,6.00
2018-02-02T12:53:10.608Z,6.00
2018-02-02T12:55:38.261Z,5.90
2018-02-02T12:58:05.713Z,5.70
2018-02-02T13:00:33.174Z,5.60
2018-02-02T13:03:00.704Z,5.60
2018-02-02T13:05:28.392Z,5.60
2018-02-02T13:07:55.831Z,5.60
2018-02-02T13:10:23.435Z,5.60
2018-02-02T13:12:50.892Z,5.70
2018-02-02T13:15:18.348Z,5.80
2018-02-02T13:17:45.807Z,5.90
2018-02-02T13:20:13.484Z,6.20
2018-02-02T13:22:41.037Z,6.50
2018-02-02T13:25:08.500Z,6.80
2018-02-02T13:27:35.972Z,7.20
2018-02-02T13:30:03.715Z,7.40
2018-02-02T13:32:31.172Z,7.50
2018-02-02T13:35:00.137Z,7.60
2018-02-02T13:37:27.592Z,7.60
2018-02-02T13:39:55.056Z,7.50
2018-02-02T13:42:22.564Z,7.50
2018-02-02T13:44:50.304Z,7.70
2018-02-02T13:47:17.863Z,8.00
2018-02-02T13:49:45.396Z,8.10
2018-02-02T13:52:12.989Z,8.10
2018-02-02T13:54:40.451Z,8.00
2018-02-02T13:57:07.904Z,7.80
2018-02-02T13:59:35.368Z,7.70
2018-02-02T14:02:03.040Z,7.60
2018-02-02T14:04:30.492Z,7.50
2018-02-02T14:06:58.871Z,7.00
2018-02-02T14:09:26.328Z,7.00
2018-02-02T14:11:53.876Z,6.90
2018-02-02T14:14:21.328Z,6.80
2018-02-02T14:16:48.787Z,6.60
2018-02-02T14:19:16.239Z,6.50
2018-02-02T14:21:44.000Z,6.50
2018-02-02T14:24:11.455Z,6.50
2018-02-02T14:26:38.911Z,6.40
2018-02-02T14:29:06.543Z,6.30
2018-02-02T14:31:34.152Z,6.20
2018-02-02T14:34:01.618Z,6.10
2018-02-02T14:36:29.073Z,6.20
2018-02-02T14:38:56.544Z,6.20
2018-02-02T14:41:24.291Z,6.20
2018-02-02T14:43:52.064Z,6.10
2018-02-02T14:46:19.767Z,6.00
2018-02-02T14:48:47.435Z,6.10
2018-02-02T14:51:14.959Z,6.00
2018-02-02T14:53:42.415Z,6.00
2018-02-02T14:56:10.271Z,5.90
2018-02-02T14:58:37.780Z,5.80
2018-02-02T15:01:05.228Z,5.90
2018-02-02T15:03:32.683Z,6.10
2018-02-02T15:06:00.136Z,6.10
2018-02-02T15:08:27.816Z,6.10
2018-02-02T15:10:55.325Z,6.10
2018-02-02T15:13:22.832Z,6.10
2018-02-02T15:15:50.543Z,6.10
2018-02-02T15:18:17.996Z,6.00
2018-02-02T15:20:45.767Z,5.90
2018-02-02T15:23:14.804Z,5.80
2018-02-02T15:25:42.532Z,5.70
2018-02-02T15:28:10.035Z,5.60
2018-02-02T15:30:37.443Z,5.60
2018-02-02T15:33:05.136Z,5.50
2018-02-02T15:35:32.671Z,5.50
2018-02-02T15:38:00.124Z,5.50
2018-02-02T15:40:27.887Z,5.50
2018-02-02T15:42:55.340Z,5.50
2018-02-02T15:45:22.800Z,5.50
2018-02-02T15:47:50.248Z,5.50
2018-02-02T15:50:17.725Z,5.50
2018-02-02T15:52:45.201Z,5.50
2018-02-02T15:55:12.868Z,5.40
2018-02-02T15:57:40.323Z,5.30
2018-02-02T16:00:08.983Z,5.30
2018-02-02T16:02:37.470Z,5.10
2018-02-02T16:05:05.145Z,5.10
2018-02-02T16:07:32.602Z,5.10
2018-02-02T16:10:00.137Z,5.00
2018-02-02T16:12:27.587Z,5.00
2018-02-02T16:14:55.065Z,4.90
2018-02-02T16:17:22.520Z,5.00
2018-02-02T16:19:49.988Z,4.90
2018-02-02T16:22:17.743Z,4.90
2018-02-02T16:24:45.204Z,4.90
2018-02-02T16:27:12.685Z,5.00
2018-02-02T16:29:40.144Z,5.00
2018-02-02T16:32:07.893Z,5.00
2018-02-02T16:34:35.340Z,5.10
2018-02-02T16:37:02.796Z,5.20
2018-02-02T16:39:30.257Z,5.30
2018-02-02T16:41:57.711Z,5.30
2018-02-02T16:44:25.181Z,5.20
2018-02-02T16:46:52.628Z,5.20
2018-02-02T16:49:20.084Z,5.20
2018-02-02T16:51:47.555Z,5.30
2018-02-02T16:54:15.228Z,5.20
2018-02-02T16:56:42.680Z,5.10
2018-02-02T16:59:10.136Z,5.00
2018-02-02T17:01:38.375Z,4.90
2018-02-02T17:04:05.824Z,4.90
2018-02-02T17:06:33.317Z,4.90
2018-02-02T17:09:00.780Z,4.90
2018-02-02T17:11:28.233Z,4.90
2018-02-02T17:13:55.692Z,4.90
2018-02-02T17:16:23.177Z,5.00
2018-02-02T17:18:51.397Z,5.00
2018-02-02T17:21:18.892Z,5.00
2018-02-02T17:23:46.343Z,5.10
2018-02-02T17:26:14.016Z,5.10
2018-02-02T17:28:42.260Z,5.10
2018-02-02T17:31:09.755Z,5.10
2018-02-02T17:33:37.988Z,5.10
2018-02-02T17:36:05.440Z,5.10
2018-02-02T17:38:32.892Z,5.00
2018-02-02T17:41:00.392Z,4.90
2018-02-02T17:43:27.873Z,4.80
2018-02-02T17:45:55.605Z,4.80
2018-02-02T17:48:23.059Z,4.80
2018-02-02T17:50:50.517Z,4.80
2018-02-02T17:53:17.988Z,4.80
2018-02-02T17:55:45.444Z,4.80
2018-02-02T17:58:12.906Z,4.80
2018-02-02T18:00:40.354Z,4.70
2018-02-02T18:03:10.404Z,4.70
2018-02-02T18:05:38.631Z,4.70
2018-02-02T18:08:06.084Z,4.70
2018-02-02T18:10:33.564Z,4.70
2018-02-02T18:13:01.031Z,4.70
2018-02-02T18:15:28.500Z,4.70
2018-02-02T18:17:55.956Z,4.70
2018-02-02T18:20:23.760Z,4.70
2018-02-02T18:22:51.475Z,4.80
2018-02-02T18:25:18.936Z,4.80
2018-02-02T18:27:46.699Z,4.80
2018-02-02T18:30:14.432Z,4.80
2018-02-02T18:32:41.888Z,4.80
2018-02-02T18:35:09.341Z,4.80
2018-02-02T18:37:36.799Z,4.70
2018-02-02T18:40:04.257Z,4.70
2018-02-02T18:42:32.068Z,4.70
2018-02-02T18:44:59.515Z,4.70
2018-02-02T18:47:26.972Z,4.70
2018-02-02T18:49:54.408Z,4.70
2018-02-02T18:52:21.979Z,4.70
2018-02-02T18:54:49.568Z,4.70
2018-02-02T18:57:17.023Z,4.70
2018-02-02T18:59:44.472Z,4.80
2018-02-02T19:02:11.935Z,4.80
2018-02-02T19:04:39.492Z,4.70
2018-02-02T19:07:07.257Z,4.80
2018-02-02T19:09:35.032Z,4.70
2018-02-02T19:12:02.484Z,4.70
2018-02-02T19:14:29.936Z,4.60
2018-02-02T19:16:57.400Z,4.60
2018-02-02T19:19:24.851Z,4.60
2018-02-02T19:21:52.620Z,4.60
2018-02-02T19:24:20.388Z,4.70
2018-02-02T19:26:47.874Z,4.70
2018-02-02T19:29:15.588Z,4.70
2018-02-02T19:31:43.068Z,4.60
2018-02-02T19:34:10.736Z,4.70
2018-02-02T19:36:38.199Z,4.70
2018-02-02T19:39:05.656Z,4.70
2018-02-02T19:41:33.112Z,4.70
2018-02-02T19:44:00.572Z,4.70
2018-02-02T19:46:28.024Z,4.70
2018-02-02T19:48:55.584Z,4.60
2018-02-02T19:51:23.031Z,4.70
2018-02-02T19:53:50.488Z,4.60
2018-02-02T19:56:17.944Z,4.60
2018-02-02T19:58:45.412Z,4.60
2018-02-02T20:01:12.860Z,4.70
2018-02-02T20:03:40.346Z,4.60
2018-02-02T20:06:07.800Z,4.60
2018-02-02T20:08:35.247Z,4.60
2018-02-02T20:11:02.976Z,4.60
2018-02-02T20:13:30.468Z,4.60
2018-02-02T20:15:57.924Z,4.60
2018-02-02T20:18:25.385Z,4.60
2018-02-02T20:20:53.063Z,4.60
2018-02-02T20:23:21.428Z,4.50
2018-02-02T20:25:48.896Z,4.40
2018-02-02T20:28:16.349Z,4.50
2018-02-02T20:30:43.899Z,4.50
2018-02-02T20:33:11.448Z,4.50
2018-02-02T20:35:38.907Z,4.40
2018-02-02T20:38:06.373Z,4.40
2018-02-02T20:40:33.948Z,4.40
2018-02-02T20:43:01.403Z,4.40
2018-02-02T20:45:28.956Z,4.40
2018-02-02T20:47:56.408Z,4.40
2018-02-02T20:50:23.872Z,4.30
2018-02-02T20:52:51.481Z,4.30
2018-02-02T20:55:18.932Z,4.30
2018-02-02T20:57:46.384Z,4.30
2018-02-02T21:00:14.008Z,4.30
2018-02-02T21:02:41.462Z,4.30
2018-02-02T21:05:08.915Z,4.20
2018-02-02T21:07:36.374Z,4.30
2018-02-02T21:10:03.835Z,4.20
2018-02-02T21:12:31.599Z,4.20
2018-02-02T21:14:59.056Z,4.20
2018-02-02T21:17:26.515Z,4.20
2018-02-02T21:19:54.288Z,4.20
2018-02-02T21:22:21.739Z,4.20
2018-02-02T21:24:49.404Z,4.20
2018-02-02T21:27:16.860Z,4.20
2018-02-02T21:29:44.339Z,4.10
2018-02-02T21:32:11.792Z,4.20
2018-02-02T21:34:39.263Z,4.20
2018-02-02T21:37:06.712Z,4.20
2018-02-02T21:39:34.191Z,4.20
2018-02-02T21:42:01.712Z,4.20
2018-02-02T21:44:29.384Z,4.20
2018-02-02T21:46:57.859Z,4.20
2018-02-02T21:49:25.620Z,4.10
2018-02-02T21:51:53.076Z,4.10
2018-02-02T21:54:20.534Z,4.20
2018-02-02T21:56:48.015Z,4.20
2018-02-02T21:59:15.651Z,4.30
2018-02-02T22:01:43.224Z,4.20
2018-02-02T22:04:10.979Z,4.20
2018-02-02T22:06:38.441Z,4.30
2018-02-02T22:09:06.107Z,4.30
2018-02-02T22:11:33.664Z,4.30
2018-02-02T22:14:01.128Z,4.20
2018-02-02T22:16:28.580Z,4.10
2018-02-02T22:18:56.037Z,4.20
2018-02-02T22:21:23.501Z,4.20
2018-02-02T22:23:51.167Z,4.20
2018-02-02T22:26:19.639Z,4.10
2018-02-02T22:28:47.100Z,4.10
2018-02-02T22:31:14.744Z,4.20
2018-02-02T22:33:42.320Z,4.10
2018-02-02T22:36:09.776Z,4.20
2018-02-02T22:38:37.544Z,4.10
2018-02-02T22:41:05.307Z,4.10
2018-02-02T22:43:32.784Z,4.00
2018-02-02T22:46:00.537Z,4.00
2018-02-02T22:48:28.205Z,3.90
2018-02-02T22:50:56.445Z,4.00
2018-02-02T22:53:24.140Z,4.00
2018-02-02T22:55:51.596Z,4.00
2018-02-02T22:58:19.355Z,4.00
2018-02-02T23:00:46.812Z,4.00
2018-02-02T23:03:14.283Z,4.00
2018-02-02T23:05:42.044Z,4.00
2018-02-02T23:08:09.497Z,3.90
2018-02-02T23:10:37.260Z,3.90
2018-02-02T23:13:05.031Z,3.80
2018-02-02T23:15:32.704Z,3.90
2018-02-02T23:18:00.155Z,3.90
2018-02-02T23:20:27.671Z,3.90
2018-02-02T23:22:55.172Z,3.90
2018-02-02T23:25:22.943Z,4.00
2018-02-02T23:27:50.703Z,3.90
2018-02-02T23:30:18.155Z,3.90
2018-02-02T23:32:45.840Z,3.90
2018-02-02T23:35:13.380Z,3.90
2018-02-02T23:37:40.832Z,4.00
2018-02-02T23:40:08.317Z,3.90
2018-02-02T23:42:36.056Z,3.90
2018-02-02T23:45:03.524Z,3.90
2018-02-02T23:47:30.972Z,3.90
2018-02-02T23:49:58.743Z,3.90
2018-02-02T23:52:26.224Z,3.80
2018-02-02T23:54:53.679Z,3.90
2018-02-02T23:57:21.900Z,3.90
2018-02-02T23:59:49.380Z,3.80
